createdAt,value
2022-09-04T04:59:42.066Z,628.00
2022-09-04T05:00:46.475Z,672.00
2022-09-04T05:01:50.958Z,668.00
2022-09-04T05:02:55.372Z,752.00
2022-09-04T05:03:59.687Z,756.00
2022-09-04T05:05:04.095Z,812.00
2022-09-04T05:06:08.489Z,900.00
2022-09-04T05:07:12.879Z,860.00
2022-09-04T05:08:17.266Z,928.00
2022-09-04T05:09:21.666Z,1000.00
2022-09-04T05:10:26.060Z,1000.00
2022-09-04T05:11:30.427Z,1024.00
2022-09-04T05:12:34.808Z,1088.00
2022-09-04T05:13:39.185Z,1128.00
2022-09-04T05:14:43.589Z,1196.00
2022-09-04T05:16:07.491Z,1220.00
2022-09-04T05:16:55.584Z,1248.00
2022-09-04T05:17:56.707Z,1272.00
2022-09-04T05:19:01.117Z,1376.00
2022-09-04T05:20:05.488Z,1416.00
2022-09-04T05:21:09.858Z,1452.00
2022-09-04T05:22:14.231Z,1440.00
2022-09-04T05:23:18.606Z,1460.00
2022-09-04T05:24:23.000Z,1560.00
2022-09-04T05:25:27.377Z,1600.00
2022-09-04T05:26:31.750Z,1668.00
2022-09-04T05:27:36.128Z,1612.00
2022-09-04T05:28:40.496Z,1668.00
2022-09-04T05:29:44.889Z,1664.00
2022-09-04T05:30:49.321Z,1704.00
2022-09-04T05:31:53.638Z,1724.00
2022-09-04T05:32:58.001Z,1776.00
2022-09-04T05:34:02.409Z,1852.00
2022-09-04T05:35:06.778Z,1924.00
2022-09-04T05:36:11.159Z,1936.00
2022-09-04T05:37:15.520Z,1964.00
2022-09-04T05:38:19.932Z,1992.00
2022-09-04T05:39:24.331Z,2140.00
2022-09-04T05:40:28.647Z,2132.00
2022-09-04T05:41:33.012Z,2196.00
2022-09-04T05:42:37.379Z,2220.00
2022-09-04T05:43:41.760Z,2236.00
2022-09-04T05:44:46.159Z,2264.00
2022-09-04T05:45:50.522Z,2300.00
2022-09-04T05:46:54.903Z,2332.00
2022-09-04T05:47:59.272Z,2340.00
2022-09-04T05:49:03.673Z,2492.00
2022-09-04T05:50:08.048Z,2520.00
2022-09-04T05:51:12.413Z,2488.00
2022-09-04T05:52:16.782Z,2420.00
2022-09-04T05:53:21.152Z,2424.00
2022-09-04T05:54:25.554Z,2504.00
2022-09-04T05:55:29.958Z,2516.00
2022-09-04T05:56:34.292Z,2524.00
2022-09-04T05:57:38.664Z,2516.00
2022-09-04T05:58:43.045Z,2632.00
2022-09-04T05:59:47.433Z,2692.00
2022-09-04T06:00:51.805Z,2680.00
2022-09-04T06:01:56.270Z,2704.00
2022-09-04T06:03:01.639Z,2728.00
2022-09-04T06:04:05.833Z,2744.00
2022-09-04T06:05:10.233Z,2776.00
2022-09-04T06:06:14.605Z,2788.00
2022-09-04T06:07:18.974Z,2840.00
2022-09-04T06:08:28.311Z,2844.00
2022-09-04T06:09:27.744Z,2836.00
2022-09-04T06:10:32.414Z,2916.00
2022-09-04T06:11:36.786Z,2980.00
2022-09-04T06:12:41.145Z,2988.00
2022-09-04T06:13:45.524Z,3048.00
2022-09-04T06:14:49.918Z,3024.00
2022-09-04T06:15:54.318Z,3028.00
2022-09-04T06:16:58.663Z,3032.00
2022-09-04T06:18:03.026Z,3064.00
2022-09-04T06:19:07.385Z,3120.00
2022-09-04T06:20:11.776Z,3136.00
2022-09-04T06:21:16.146Z,3220.00
2022-09-04T06:22:20.506Z,3224.00
2022-09-04T06:23:24.877Z,3236.00
2022-09-04T06:24:29.257Z,3284.00
2022-09-04T06:25:33.628Z,3300.00
2022-09-04T06:26:38.006Z,3364.00
2022-09-04T06:27:42.376Z,3392.00
2022-09-04T06:28:46.742Z,3420.00
2022-09-04T06:29:51.136Z,3504.00
2022-09-04T06:30:55.533Z,3496.00
2022-09-04T06:31:59.881Z,3456.00
2022-09-04T06:33:04.247Z,3408.00
2022-09-04T06:34:08.628Z,3376.00
2022-09-04T06:35:13.018Z,3368.00
2022-09-04T06:36:17.399Z,3392.00
2022-09-04T06:37:21.768Z,3208.00
2022-09-04T06:38:26.195Z,3264.00
2022-09-04T06:39:30.644Z,3360.00
2022-09-04T06:40:34.942Z,3340.00
2022-09-04T06:41:39.317Z,3192.00
2022-09-04T06:42:43.676Z,3188.00
2022-09-04T06:43:48.592Z,3200.00
2022-09-04T06:44:52.449Z,3268.00
2022-09-04T06:46:01.508Z,3296.00
2022-09-04T06:47:01.189Z,3320.00
2022-09-04T06:48:05.549Z,3336.00
2022-09-04T06:49:09.921Z,3416.00
2022-09-04T06:50:14.320Z,3492.00
2022-09-04T06:51:18.811Z,3540.00
2022-09-04T06:52:23.180Z,3604.00
2022-09-04T06:53:27.550Z,3588.00
2022-09-04T06:54:32.363Z,3480.00
2022-09-04T06:55:36.322Z,3472.00
2022-09-04T06:56:40.696Z,3464.00
2022-09-04T06:57:45.061Z,3528.00
2022-09-04T06:58:49.437Z,3568.00
2022-09-04T06:59:53.822Z,3592.00
2022-09-04T07:00:58.181Z,3600.00
2022-09-04T07:02:02.628Z,3620.00
2022-09-04T07:03:06.930Z,3624.00
2022-09-04T07:04:11.291Z,3624.00
2022-09-04T07:05:15.685Z,3628.00
2022-09-04T07:06:20.063Z,3628.00
2022-09-04T07:07:24.421Z,3640.00
2022-09-04T07:08:28.795Z,3620.00
2022-09-04T07:09:33.171Z,3632.00
2022-09-04T07:10:37.564Z,3600.00
2022-09-04T07:11:41.943Z,3592.00
2022-09-04T07:12:46.303Z,3624.00
2022-09-04T07:13:50.680Z,3716.00
2022-09-04T07:14:55.083Z,3688.00
2022-09-04T07:15:59.495Z,3704.00
2022-09-04T07:17:03.814Z,3660.00
2022-09-04T07:18:08.194Z,3716.00
2022-09-04T07:19:12.580Z,3712.00
2022-09-04T07:20:16.961Z,3716.00
2022-09-04T07:21:21.324Z,3664.00
2022-09-04T07:22:25.704Z,3616.00
2022-09-04T07:23:30.074Z,3636.00
2022-09-04T07:24:34.454Z,3560.00
2022-09-04T07:25:38.835Z,3636.00
2022-09-04T07:26:43.205Z,3592.00
2022-09-04T07:27:47.573Z,3608.00
2022-09-04T07:28:51.946Z,3600.00
2022-09-04T07:29:56.324Z,3700.00
2022-09-04T07:31:00.694Z,3712.00
2022-09-04T07:32:05.057Z,3740.00
2022-09-04T07:33:09.427Z,3756.00
2022-09-04T07:34:13.788Z,3748.00
2022-09-04T07:35:18.176Z,3732.00
2022-09-04T07:36:26.381Z,3764.00
2022-09-04T07:37:26.928Z,3868.00
2022-09-04T07:38:31.286Z,3876.00
2022-09-04T07:39:35.706Z,3744.00
2022-09-04T07:40:40.049Z,3876.00
2022-09-04T07:41:44.416Z,3888.00
2022-09-04T07:42:48.777Z,3884.00
2022-09-04T07:43:54.974Z,3744.00
2022-09-04T07:44:57.676Z,3780.00
2022-09-04T07:46:02.114Z,3884.00
2022-09-04T07:47:06.418Z,3864.00
2022-09-04T07:48:10.797Z,3912.00
2022-09-04T07:49:15.168Z,3872.00
2022-09-04T07:50:19.619Z,3928.00
2022-09-04T07:51:23.936Z,3908.00
2022-09-04T07:52:28.308Z,3908.00
2022-09-04T07:53:32.679Z,3924.00
2022-09-04T07:54:37.059Z,3904.00
2022-09-04T07:55:41.451Z,3976.00
2022-09-04T07:56:45.820Z,3984.00
2022-09-04T07:57:50.207Z,3912.00
2022-09-04T07:58:54.581Z,4028.00
2022-09-04T07:59:58.980Z,4032.00
2022-09-04T08:01:03.377Z,4044.00
2022-09-04T08:02:07.795Z,4052.00
2022-09-04T08:03:12.129Z,4080.00
2022-09-04T08:04:16.469Z,4188.00
2022-09-04T08:05:20.870Z,4192.00
2022-09-04T08:06:25.241Z,4176.00
2022-09-04T08:07:29.611Z,4152.00
2022-09-04T08:08:33.981Z,4128.00
2022-09-04T08:09:38.361Z,4092.00
2022-09-04T08:10:43.061Z,4076.00
2022-09-04T08:11:47.437Z,4068.00
2022-09-04T08:12:51.882Z,4060.00
2022-09-04T08:13:56.263Z,4024.00
2022-09-04T08:15:00.633Z,4024.00
2022-09-04T08:16:05.079Z,3980.00
2022-09-04T08:17:09.420Z,4064.00
2022-09-04T08:18:13.791Z,4108.00
2022-09-04T08:19:18.192Z,4108.00
2022-09-04T08:20:22.583Z,4104.00
2022-09-04T08:21:26.955Z,4092.00
2022-09-04T08:22:31.343Z,4084.00
2022-09-04T08:23:35.711Z,4112.00
2022-09-04T08:24:40.083Z,4120.00
2022-09-04T08:25:44.782Z,4136.00
2022-09-04T08:26:49.176Z,4084.00
2022-09-04T08:27:53.554Z,4128.00
2022-09-04T08:28:57.944Z,4180.00
2022-09-04T08:30:02.345Z,4200.00
2022-09-04T08:31:06.771Z,4116.00
2022-09-04T08:32:11.094Z,4100.00
2022-09-04T08:33:15.492Z,4072.00
2022-09-04T08:34:19.876Z,4064.00
2022-09-04T08:35:24.274Z,4024.00
2022-09-04T08:36:28.645Z,4040.00
2022-09-04T08:37:33.015Z,4032.00
2022-09-04T08:38:37.395Z,4176.00
2022-09-04T08:39:41.806Z,4224.00
2022-09-04T08:40:46.532Z,4260.00
2022-09-04T08:41:50.904Z,4368.00
2022-09-04T08:42:55.286Z,4396.00
2022-09-04T08:43:59.656Z,4556.00
2022-09-04T08:45:04.025Z,4588.00
2022-09-04T08:46:08.453Z,4604.00
2022-09-04T08:47:12.798Z,4584.00
2022-09-04T08:48:17.175Z,4456.00
2022-09-04T08:49:21.545Z,4552.00
2022-09-04T08:50:25.946Z,4644.00
2022-09-04T08:51:30.316Z,4716.00
2022-09-04T08:52:34.696Z,4624.00
2022-09-04T08:53:39.058Z,4624.00
2022-09-04T08:54:43.440Z,4584.00
2022-09-04T08:55:47.832Z,4688.00
2022-09-04T08:56:52.207Z,4592.00
2022-09-04T08:57:56.647Z,4544.00
2022-09-04T08:59:01.018Z,4524.00
2022-09-04T09:00:05.419Z,4712.00
2022-09-04T09:01:09.863Z,4668.00
2022-09-04T09:02:14.216Z,4688.00
2022-09-04T09:03:18.567Z,4580.00
2022-09-04T09:04:22.937Z,4688.00
2022-09-04T09:05:27.309Z,4592.00
2022-09-04T09:06:31.710Z,4552.00
2022-09-04T09:07:36.076Z,4608.00
2022-09-04T09:08:41.299Z,4584.00
2022-09-04T09:09:45.689Z,4624.00
2022-09-04T09:10:50.137Z,4616.00
2022-09-04T09:11:54.510Z,4620.00
2022-09-04T09:12:58.879Z,4580.00
2022-09-04T09:14:03.247Z,4760.00
2022-09-04T09:15:07.619Z,4808.00
2022-09-04T09:16:12.064Z,4772.00
2022-09-04T09:17:16.383Z,4756.00
2022-09-04T09:18:20.753Z,4772.00
2022-09-04T09:19:25.121Z,4792.00
2022-09-04T09:20:29.490Z,4856.00
2022-09-04T09:21:33.882Z,4832.00
2022-09-04T09:22:38.255Z,4860.00
2022-09-04T09:23:42.618Z,4860.00
2022-09-04T09:24:46.994Z,4896.00
2022-09-04T09:25:51.380Z,4908.00
2022-09-04T09:26:55.753Z,4880.00
2022-09-04T09:28:00.113Z,4908.00
2022-09-04T09:29:04.481Z,4916.00
2022-09-04T09:30:08.857Z,4936.00
2022-09-04T09:31:13.270Z,4936.00
2022-09-04T09:32:17.852Z,4868.00
2022-09-04T09:33:22.293Z,4976.00
2022-09-04T09:34:26.593Z,4984.00
2022-09-04T09:35:30.973Z,4960.00
2022-09-04T09:36:35.355Z,4952.00
2022-09-04T09:37:39.722Z,4952.00
2022-09-04T09:38:44.357Z,4932.00
2022-09-04T09:39:48.568Z,4920.00
2022-09-04T09:40:52.902Z,4908.00
2022-09-04T09:41:57.274Z,4924.00
2022-09-04T09:43:01.632Z,4952.00
2022-09-04T09:44:06.015Z,4856.00
2022-09-04T09:45:10.383Z,4916.00
2022-09-04T09:46:14.817Z,4872.00
2022-09-04T09:47:19.145Z,4632.00
2022-09-04T09:48:23.515Z,4244.00
2022-09-04T09:49:27.894Z,4640.00
2022-09-04T09:50:32.268Z,4860.00
2022-09-04T09:51:36.987Z,4876.00
2022-09-04T09:52:41.012Z,4880.00
2022-09-04T09:53:47.402Z,4892.00
2022-09-04T09:54:49.751Z,4796.00
2022-09-04T09:55:54.123Z,4760.00
2022-09-04T09:56:58.532Z,4884.00
2022-09-04T09:58:02.907Z,5136.00
2022-09-04T09:59:07.276Z,5024.00
2022-09-04T10:00:11.636Z,5068.00
2022-09-04T10:01:16.112Z,5056.00
2022-09-04T10:02:20.453Z,5056.00
2022-09-04T10:03:24.861Z,5148.00
2022-09-04T10:04:32.501Z,5108.00
2022-09-04T10:05:33.495Z,5140.00
2022-09-04T10:06:37.886Z,5156.00
2022-09-04T10:07:42.255Z,5160.00
2022-09-04T10:08:46.618Z,5152.00
2022-09-04T10:09:50.988Z,5176.00
2022-09-04T10:10:55.350Z,5168.00
2022-09-04T10:11:59.737Z,5196.00
2022-09-04T10:13:04.100Z,5240.00
2022-09-04T10:14:08.467Z,5252.00
2022-09-04T10:15:12.828Z,5280.00
2022-09-04T10:16:17.310Z,5284.00
2022-09-04T10:17:21.898Z,5332.00
2022-09-04T10:18:26.268Z,5324.00
2022-09-04T10:19:30.651Z,5332.00
2022-09-04T10:20:35.028Z,5364.00
2022-09-04T10:21:39.419Z,5372.00
2022-09-04T10:22:43.788Z,5332.00
2022-09-04T10:23:48.153Z,5384.00
2022-09-04T10:24:52.539Z,5384.00
2022-09-04T10:25:56.900Z,5376.00
2022-09-04T10:27:01.300Z,5400.00
2022-09-04T10:28:05.668Z,5380.00
2022-09-04T10:29:10.077Z,5576.00
2022-09-04T10:30:14.514Z,5416.00
2022-09-04T10:31:18.789Z,5404.00
2022-09-04T10:32:23.559Z,5620.00
2022-09-04T10:33:28.456Z,5524.00
2022-09-04T10:34:32.308Z,5620.00
2022-09-04T10:35:36.678Z,5476.00
2022-09-04T10:36:41.060Z,5740.00
2022-09-04T10:37:45.431Z,6068.00
2022-09-04T10:38:49.801Z,6012.00
2022-09-04T10:39:54.195Z,6108.00
2022-09-04T10:40:58.529Z,6000.00
2022-09-04T10:42:02.924Z,5808.00
2022-09-04T10:43:07.291Z,6152.00
2022-09-04T10:44:11.651Z,5512.00
2022-09-04T10:45:16.012Z,5552.00
2022-09-04T10:46:23.184Z,6008.00
2022-09-04T10:47:24.782Z,5764.00
2022-09-04T10:48:29.150Z,5868.00
2022-09-04T10:49:33.515Z,6024.00
2022-09-04T10:50:37.873Z,6132.00
2022-09-04T10:51:42.254Z,6144.00
2022-09-04T10:52:46.903Z,6052.00
2022-09-04T10:53:51.269Z,5856.00
2022-09-04T10:54:55.624Z,5796.00
2022-09-04T10:55:59.973Z,5796.00
2022-09-04T10:57:04.354Z,5896.00
2022-09-04T10:58:08.725Z,5912.00
2022-09-04T10:59:13.094Z,6168.00
2022-09-04T11:00:18.323Z,6280.00
2022-09-04T11:01:22.747Z,6148.00
2022-09-04T11:02:28.069Z,5956.00
2022-09-04T11:03:32.394Z,6024.00
2022-09-04T11:04:36.753Z,5888.00
2022-09-04T11:05:41.133Z,5972.00
2022-09-04T11:06:45.485Z,6032.00
2022-09-04T11:07:49.876Z,6280.00
2022-09-04T11:08:54.236Z,6100.00
2022-09-04T11:09:58.617Z,6272.00
2022-09-04T11:11:02.978Z,6212.00
2022-09-04T11:12:07.379Z,6340.00
2022-09-04T11:13:11.746Z,6296.00
2022-09-04T11:14:16.113Z,6244.00
2022-09-04T11:15:20.476Z,6252.00
2022-09-04T11:16:26.680Z,6280.00
2022-09-04T11:17:31.017Z,6316.00
2022-09-04T11:18:35.368Z,6352.00
2022-09-04T11:19:39.739Z,6536.00
2022-09-04T11:20:44.098Z,6728.00
2022-09-04T11:21:48.464Z,6768.00
2022-09-04T11:22:52.847Z,6836.00
2022-09-04T11:23:57.217Z,6872.00
2022-09-04T11:25:01.691Z,6828.00
2022-09-04T11:26:05.952Z,5668.00
2022-09-04T11:27:10.310Z,5132.00
2022-09-04T11:28:15.735Z,5124.00
2022-09-04T11:29:19.061Z,5088.00
2022-09-04T11:30:23.718Z,5084.00
2022-09-04T11:31:28.090Z,4964.00
2022-09-04T11:32:32.458Z,6256.00
2022-09-04T11:33:36.825Z,6608.00
2022-09-04T11:34:41.191Z,6804.00
2022-09-04T11:35:45.559Z,6852.00
2022-09-04T11:36:49.920Z,6868.00
2022-09-04T11:37:57.500Z,6932.00
2022-09-04T11:39:06.611Z,6940.00
2022-09-04T11:40:10.970Z,6956.00
2022-09-04T11:41:15.343Z,6952.00
2022-09-04T11:42:19.730Z,6928.00
2022-09-04T11:43:24.203Z,7028.00
2022-09-04T11:44:28.461Z,7076.00
2022-09-04T11:45:32.930Z,7108.00
2022-09-04T11:46:37.171Z,7276.00
2022-09-04T11:47:41.562Z,7284.00
2022-09-04T11:48:45.925Z,7336.00
2022-09-04T11:49:50.281Z,7380.00
2022-09-04T11:50:54.642Z,7420.00
2022-09-04T11:51:59.031Z,7524.00
2022-09-04T11:53:03.392Z,7624.00
2022-09-04T11:54:07.751Z,7592.00
2022-09-04T11:55:12.101Z,7648.00
2022-09-04T11:56:16.471Z,7548.00
2022-09-04T11:57:20.852Z,7624.00
2022-09-04T11:58:25.206Z,7432.00
2022-09-04T11:59:29.553Z,6984.00
2022-09-04T12:00:33.922Z,7732.00
2022-09-04T12:01:38.274Z,8084.00
2022-09-04T12:02:42.650Z,8712.00
2022-09-04T12:03:47.308Z,7936.00
2022-09-04T12:04:51.635Z,8700.00
2022-09-04T12:05:55.984Z,9088.00
2022-09-04T12:07:02.448Z,8932.00
2022-09-04T12:08:04.727Z,9376.00
2022-09-04T12:09:09.075Z,9588.00
2022-09-04T12:10:13.424Z,9632.00
2022-09-04T12:11:17.776Z,9844.00
2022-09-04T12:12:22.165Z,9964.00
2022-09-04T12:13:26.923Z,10056.00
2022-09-04T12:14:30.886Z,9928.00
2022-09-04T12:15:35.257Z,9612.00
2022-09-04T12:16:39.634Z,9160.00
2022-09-04T12:17:43.993Z,9016.00
2022-09-04T12:18:48.424Z,9012.00
2022-09-04T12:19:52.715Z,8792.00
2022-09-04T12:20:57.077Z,9324.00
2022-09-04T12:22:01.442Z,9788.00
2022-09-04T12:23:05.821Z,10140.00
2022-09-04T12:24:10.186Z,10236.00
2022-09-04T12:25:14.538Z,10212.00
2022-09-04T12:26:18.897Z,10388.00
2022-09-04T12:27:23.278Z,10780.00
2022-09-04T12:28:27.628Z,10976.00
2022-09-04T12:29:31.988Z,11276.00
2022-09-04T12:30:36.348Z,11420.00
2022-09-04T12:31:40.766Z,12112.00
2022-09-04T12:32:45.079Z,12424.00
2022-09-04T12:33:49.428Z,12516.00
2022-09-04T12:34:53.789Z,12628.00
2022-09-04T12:35:58.239Z,12800.00
2022-09-04T12:37:02.508Z,12968.00
2022-09-04T12:38:06.889Z,13208.00
2022-09-04T12:39:11.249Z,11904.00
2022-09-04T12:40:15.611Z,13272.00
2022-09-04T12:41:19.967Z,13112.00
2022-09-04T12:42:24.339Z,13168.00
2022-09-04T12:43:28.708Z,13360.00
2022-09-04T12:44:33.059Z,13980.00
2022-09-04T12:45:37.476Z,13912.00
2022-09-04T12:46:41.793Z,13428.00
2022-09-04T12:47:46.151Z,13968.00
2022-09-04T12:48:50.500Z,14720.00
2022-09-04T12:49:54.851Z,13920.00
2022-09-04T12:50:59.215Z,13056.00
2022-09-04T12:52:03.574Z,17280.00
2022-09-04T12:53:07.921Z,16160.00
2022-09-04T12:54:12.274Z,15360.00
2022-09-04T12:55:16.613Z,16480.00
2022-09-04T12:56:20.967Z,16544.00
2022-09-04T12:57:25.353Z,16288.00
2022-09-04T12:58:29.714Z,15552.00
2022-09-04T12:59:34.061Z,13472.00
2022-09-04T13:00:45.985Z,15328.00
2022-09-04T13:01:43.040Z,12928.00
2022-09-04T13:02:47.282Z,13664.00
2022-09-04T13:03:51.633Z,13440.00
2022-09-04T13:04:56.002Z,16352.00
2022-09-04T13:06:00.344Z,17824.00
2022-09-04T13:07:07.098Z,17568.00
2022-09-04T13:08:09.083Z,18496.00
2022-09-04T13:09:13.434Z,17984.00
2022-09-04T13:10:17.772Z,17952.00
2022-09-04T13:11:22.134Z,17568.00
2022-09-04T13:12:26.496Z,9620.00
2022-09-04T13:13:30.835Z,8652.00
2022-09-04T13:14:35.174Z,8640.00
2022-09-04T13:15:39.525Z,8724.00
2022-09-04T13:16:43.974Z,8568.00
2022-09-04T13:17:48.254Z,8480.00
2022-09-04T13:18:52.595Z,8968.00
2022-09-04T13:19:56.945Z,8620.00
2022-09-04T13:21:01.296Z,9392.00
2022-09-04T13:22:05.673Z,14692.00
2022-09-04T13:23:11.110Z,8996.00
2022-09-04T13:24:14.370Z,8896.00
2022-09-04T13:25:18.714Z,10372.00
2022-09-04T13:26:23.088Z,17376.00
2022-09-04T13:27:27.432Z,21568.00
2022-09-04T13:28:31.758Z,20416.00
2022-09-04T13:29:36.088Z,25056.00
2022-09-04T13:30:40.429Z,10824.00
2022-09-04T13:31:44.873Z,16416.00
2022-09-04T13:32:49.127Z,22880.00
2022-09-04T13:33:53.457Z,22688.00
2022-09-04T13:34:57.789Z,22976.00
2022-09-04T13:36:02.117Z,25056.00
2022-09-04T13:37:08.287Z,16704.00
2022-09-04T13:38:12.608Z,21696.00
2022-09-04T13:39:16.929Z,24704.00
2022-09-04T13:40:21.248Z,27232.00
2022-09-04T13:41:30.419Z,25376.00
2022-09-04T13:42:29.900Z,26976.00
2022-09-04T13:43:34.219Z,28576.00
2022-09-04T13:44:38.534Z,27584.00
2022-09-04T13:45:42.854Z,28896.00
2022-09-04T13:46:47.422Z,29152.00
2022-09-04T13:47:51.518Z,30912.00
2022-09-04T13:48:55.852Z,28960.00
2022-09-04T13:50:04.092Z,30656.00
2022-09-04T13:51:13.764Z,30656.00
2022-09-04T13:52:13.041Z,30848.00
2022-09-04T13:53:17.354Z,30112.00
2022-09-04T13:54:21.662Z,30656.00
2022-09-04T13:55:25.962Z,31456.00
2022-09-04T13:56:30.272Z,27264.00
2022-09-04T13:57:34.613Z,29312.00
2022-09-04T13:58:38.922Z,18624.00
2022-09-04T13:59:43.222Z,24032.00
2022-09-04T14:00:47.600Z,37600.00
2022-09-04T14:01:51.875Z,33504.00
2022-09-04T14:02:56.184Z,33056.00
2022-09-04T14:04:00.537Z,35744.00
2022-09-04T14:05:04.788Z,39648.00
2022-09-04T14:06:09.095Z,36384.00
2022-09-04T14:07:13.425Z,22848.00
2022-09-04T14:08:17.724Z,35936.00
2022-09-04T14:09:22.048Z,11908.00
2022-09-04T14:10:26.335Z,11760.00
2022-09-04T14:11:30.886Z,11848.00
2022-09-04T14:12:35.227Z,11960.00
2022-09-04T14:13:39.538Z,12140.00
2022-09-04T14:14:43.864Z,12044.00
2022-09-04T14:15:48.225Z,12484.00
2022-09-04T14:16:52.528Z,35264.00
2022-09-04T14:17:56.837Z,35296.00
2022-09-04T14:19:03.830Z,35616.00
2022-09-04T14:20:05.533Z,34080.00
2022-09-04T14:21:09.785Z,15232.00
2022-09-04T14:22:14.127Z,14164.00
2022-09-04T14:23:18.468Z,37728.00
2022-09-04T14:24:22.767Z,38336.00
2022-09-04T14:25:30.366Z,36320.00
2022-09-04T14:26:31.397Z,13828.00
2022-09-04T14:27:35.751Z,13316.00
2022-09-04T14:28:40.076Z,13708.00
2022-09-04T14:29:44.399Z,34560.00
2022-09-04T14:30:48.719Z,36000.00
2022-09-04T14:31:57.261Z,35296.00
2022-09-04T14:33:05.454Z,30784.00
2022-09-04T14:34:05.882Z,29152.00
2022-09-04T14:35:10.208Z,12560.00
2022-09-04T14:36:14.521Z,14052.00
2022-09-04T14:37:18.869Z,33120.00
2022-09-04T14:38:23.180Z,39776.00
2022-09-04T14:39:27.588Z,39328.00
2022-09-04T14:40:31.819Z,38528.00
2022-09-04T14:41:36.545Z,42496.00
2022-09-04T14:42:40.471Z,47744.00
2022-09-04T14:43:44.794Z,44416.00
2022-09-04T14:44:49.103Z,43584.00
2022-09-04T14:45:53.423Z,50368.00
2022-09-04T14:46:57.768Z,47200.00
2022-09-04T14:48:02.077Z,40864.00
2022-09-04T14:49:06.381Z,45728.00
2022-09-04T14:50:10.718Z,43872.00
2022-09-04T14:51:15.022Z,41280.00
2022-09-04T14:52:19.378Z,48384.00
2022-09-04T14:53:23.690Z,48864.00
2022-09-04T14:54:28.012Z,41920.00
2022-09-04T14:55:32.323Z,48576.00
2022-09-04T14:56:36.673Z,50400.00
2022-09-04T14:57:40.975Z,43712.00
2022-09-04T14:58:48.940Z,39232.00
2022-09-04T14:59:49.616Z,40608.00
2022-09-04T15:00:53.956Z,44352.00
2022-09-04T15:01:58.379Z,12056.00
2022-09-04T15:03:02.614Z,12084.00
2022-09-04T15:04:06.974Z,16864.00
2022-09-04T15:05:11.254Z,29760.00
2022-09-04T15:06:15.565Z,13052.00
2022-09-04T15:07:19.934Z,22752.00
2022-09-04T15:08:24.298Z,32800.00
2022-09-04T15:09:28.575Z,34496.00
2022-09-04T15:10:36.855Z,34656.00
2022-09-04T15:11:41.205Z,41632.00
2022-09-04T15:12:45.531Z,43840.00
2022-09-04T15:13:49.918Z,37024.00
2022-09-04T15:14:54.206Z,27680.00
2022-09-04T15:15:58.569Z,26816.00
2022-09-04T15:17:02.866Z,18784.00
2022-09-04T15:18:10.495Z,29856.00
2022-09-04T15:19:11.517Z,21024.00
2022-09-04T15:20:17.145Z,11076.00
2022-09-04T15:21:21.349Z,21984.00
2022-09-04T15:22:24.526Z,10360.00
2022-09-04T15:23:28.848Z,9540.00
2022-09-04T15:24:33.182Z,8120.00
2022-09-04T15:25:57.719Z,8128.00
2022-09-04T15:26:46.237Z,7732.00
2022-09-04T15:27:46.201Z,7416.00
2022-09-04T15:28:50.541Z,7060.00
2022-09-04T15:29:55.699Z,6776.00
2022-09-04T15:30:59.299Z,6424.00
2022-09-04T15:32:03.620Z,6404.00
2022-09-04T15:33:07.971Z,6120.00
2022-09-04T15:34:12.300Z,5868.00
2022-09-04T15:35:16.644Z,6248.00
2022-09-04T15:36:21.015Z,5556.00
2022-09-04T15:37:25.341Z,5292.00
2022-09-04T15:38:29.672Z,5152.00
2022-09-04T15:39:34.048Z,5000.00
2022-09-04T15:40:38.341Z,4912.00
2022-09-04T15:41:42.685Z,4844.00
2022-09-04T15:42:47.075Z,4764.00
2022-09-04T15:43:51.421Z,4752.00
2022-09-04T15:44:55.760Z,4748.00
2022-09-04T15:46:00.227Z,4660.00
2022-09-04T15:47:04.481Z,4676.00
2022-09-04T15:48:08.825Z,4684.00
2022-09-04T15:49:13.163Z,4680.00
2022-09-04T15:50:17.513Z,4648.00
2022-09-04T15:51:21.858Z,4724.00
2022-09-04T15:52:26.233Z,4904.00
2022-09-04T15:53:30.579Z,5816.00
2022-09-04T15:54:34.923Z,7960.00
2022-09-04T15:55:39.293Z,6124.00
2022-09-04T15:56:43.644Z,8648.00
2022-09-04T15:57:48.011Z,8048.00
2022-09-04T15:58:52.388Z,8080.00
2022-09-04T15:59:56.725Z,8164.00
2022-09-04T16:01:01.064Z,8464.00
2022-09-04T16:02:05.510Z,9364.00
2022-09-04T16:03:09.808Z,11140.00
2022-09-04T16:04:14.125Z,10884.00
2022-09-04T16:05:23.118Z,11052.00
2022-09-04T16:06:22.805Z,11800.00
2022-09-04T16:07:27.185Z,11480.00
2022-09-04T16:08:31.526Z,11776.00
2022-09-04T16:09:35.875Z,11120.00
2022-09-04T16:10:40.229Z,10124.00
2022-09-04T16:11:44.565Z,9108.00
2022-09-04T16:12:48.924Z,6788.00
2022-09-04T16:13:58.294Z,7080.00
2022-09-04T16:14:57.616Z,7016.00
2022-09-04T16:16:04.357Z,6988.00
2022-09-04T16:17:06.298Z,7304.00
2022-09-04T16:18:10.670Z,7964.00
2022-09-04T16:19:15.022Z,11240.00
2022-09-04T16:20:19.363Z,11836.00
2022-09-04T16:21:23.698Z,12640.00
2022-09-04T16:22:28.045Z,12576.00
2022-09-04T16:23:32.420Z,11152.00
2022-09-04T16:24:36.763Z,9216.00
2022-09-04T16:25:41.128Z,8280.00
2022-09-04T16:26:45.469Z,8012.00
2022-09-04T16:27:49.859Z,8568.00
2022-09-04T16:28:54.198Z,9028.00
2022-09-04T16:29:58.619Z,7016.00
2022-09-04T16:31:02.944Z,6504.00
2022-09-04T16:32:07.239Z,6468.00
2022-09-04T16:33:25.004Z,5796.00
2022-09-04T16:34:15.950Z,5708.00
2022-09-04T16:35:20.301Z,5536.00
2022-09-04T16:36:24.649Z,5492.00
2022-09-04T16:37:28.989Z,4948.00
2022-09-04T16:38:33.388Z,5188.00
2022-09-04T16:39:37.806Z,4956.00
2022-09-04T16:40:42.091Z,4848.00
2022-09-04T16:41:46.719Z,4876.00
2022-09-04T16:42:51.079Z,6064.00
2022-09-04T16:43:59.451Z,5876.00
2022-09-04T16:44:59.791Z,5792.00
2022-09-04T16:46:04.168Z,4756.00
2022-09-04T16:47:08.483Z,4276.00
2022-09-04T16:48:43.291Z,4156.00
2022-09-04T16:49:19.761Z,3840.00
2022-09-04T16:50:21.571Z,3844.00
2022-09-04T16:51:39.449Z,3580.00
2022-09-04T16:52:30.280Z,3780.00
2022-09-04T16:53:34.643Z,3760.00
2022-09-04T16:54:38.999Z,3200.00
2022-09-04T16:55:43.333Z,2960.00
2022-09-04T16:56:47.693Z,3028.00
2022-09-04T16:57:52.034Z,2928.00
2022-09-04T16:58:56.422Z,2960.00
2022-09-04T17:00:00.767Z,2944.00
2022-09-04T17:01:12.837Z,2936.00
2022-09-04T17:02:09.516Z,2968.00
2022-09-04T17:03:13.805Z,2908.00
2022-09-04T17:04:22.074Z,2924.00
2022-09-04T17:05:28.126Z,2880.00
2022-09-04T17:06:31.055Z,2768.00
2022-09-04T17:07:35.393Z,2668.00
2022-09-04T17:08:39.766Z,2752.00
2022-09-04T17:09:44.103Z,2488.00
2022-09-04T17:10:48.745Z,2800.00
2022-09-04T17:11:55.321Z,2632.00
2022-09-04T17:12:57.437Z,2408.00
2022-09-04T17:14:05.255Z,2300.00
2022-09-04T17:15:06.166Z,2188.00
2022-09-04T17:16:10.550Z,2028.00
2022-09-04T17:17:30.195Z,1964.00
2022-09-04T17:18:20.804Z,1888.00
2022-09-04T17:19:23.614Z,1700.00
2022-09-04T17:21:09.644Z,1692.00
2022-09-04T17:25:40.580Z,1756.00
2022-09-04T17:28:51.218Z,1588.00
2022-09-04T17:28:54.429Z,1648.00
2022-09-04T17:28:56.040Z,1500.00
2022-09-04T17:29:08.055Z,1520.00
2022-09-04T17:29:08.976Z,1436.00
2022-09-04T17:29:13.399Z,1452.00
2022-09-04T17:30:07.166Z,1240.00
2022-09-04T17:31:11.568Z,1216.00
2022-09-04T17:33:53.968Z,1196.00
2022-09-04T17:38:12.210Z,1184.00
2022-09-04T17:40:35.450Z,1144.00
2022-09-04T17:40:36.080Z,1044.00
2022-09-04T17:40:38.565Z,1180.00
2022-09-04T17:40:39.499Z,1096.00
2022-09-04T17:40:55.715Z,928.00
2022-09-04T17:41:34.609Z,976.00
2022-09-04T17:41:35.844Z,984.00
2022-09-04T17:42:08.431Z,840.00
2022-09-04T17:43:23.408Z,828.00
2022-09-04T17:44:03.819Z,808.00
2022-09-04T17:45:08.172Z,732.00
2022-09-04T17:46:12.568Z,728.00
2022-09-04T17:47:16.871Z,636.00
2022-09-04T17:48:21.231Z,624.00
2022-09-04T17:49:29.378Z,616.00
2022-09-04T17:50:29.969Z,516.00
2022-09-04T17:51:34.327Z,524.00
2022-09-04T17:52:38.679Z,488.00
2022-09-04T17:53:43.359Z,444.00
2022-09-04T17:54:49.177Z,436.00